Terminal Aerodrome Forecast
Issued by NWS Mt. Holly, NJ

Home | Current Version | Previous Version | Text Only | Print | Product List | Glossary On
Versions: 1 2 3 4 5 6 7 8 9 10 11 12 13 14 15 16
000
FTUS41 KPHI 200500
TAFACY
TAF
KACY 200533Z 2006/2106 11005KT P6SM SCT025 BKN035
      TEMPO 2006/2010 BKN025
     FM201000 13004KT P6SM OVC015
     FM201600 14011KT P6SM VCSH OVC025
     FM210000 11005KT P6SM BKN012
     FM210500 VRB02KT P6SM BKN009=

USA.gov is the U.S. government's official web portal to all federal, state and local government web resources and services.